createdAt,value
2022-08-23T00:02:39.340Z,84.04
2022-08-23T00:05:44.622Z,83.77
2022-08-23T00:08:48.869Z,83.68
2022-08-23T00:12:09.404Z,83.01
2022-08-23T00:15:15.146Z,82.66
2022-08-23T00:18:18.403Z,83.71
2022-08-23T00:21:20.606Z,84.00
2022-08-23T00:24:24.490Z,83.62
2022-08-23T00:27:26.961Z,84.92
2022-08-23T00:30:29.713Z,83.39
2022-08-23T00:33:31.797Z,83.22
2022-08-23T00:36:35.377Z,83.97
2022-08-23T00:39:39.115Z,84.49
2022-08-23T00:43:09.181Z,84.21
2022-08-23T00:46:41.576Z,84.25
2022-08-23T00:49:48.446Z,85.39
2022-08-23T00:53:12.009Z,85.16
2022-08-23T00:56:17.170Z,85.36
2022-08-23T00:59:19.501Z,84.48
2022-08-23T01:02:22.251Z,83.59
2022-08-23T01:05:31.224Z,83.06
2022-08-23T01:08:35.478Z,83.53
2022-08-23T01:11:47.758Z,82.82
2022-08-23T01:15:09.065Z,83.49
2022-08-23T01:18:15.257Z,83.94
2022-08-23T01:21:45.446Z,84.07
2022-08-23T01:25:07.023Z,85.28
2022-08-23T01:28:10.862Z,85.26
2022-08-23T01:31:13.730Z,85.32
2022-08-23T01:34:18.282Z,85.32
2022-08-23T01:37:21.230Z,86.50
2022-08-23T01:40:24.688Z,85.24
2022-08-23T01:43:27.437Z,84.14
2022-08-23T01:46:29.942Z,83.98
2022-08-23T01:49:33.073Z,83.88
2022-08-23T01:52:36.957Z,83.45
2022-08-23T01:55:42.148Z,84.75
2022-08-23T01:58:44.478Z,84.84
2022-08-23T02:01:47.561Z,85.09
2022-08-23T02:04:50.261Z,85.08
2022-08-23T02:07:52.417Z,85.30
2022-08-23T02:10:55.692Z,85.70
2022-08-23T02:14:01.036Z,85.50
2022-08-23T02:17:05.139Z,85.89
2022-08-23T02:20:08.817Z,85.17
2022-08-23T02:23:11.594Z,84.03
2022-08-23T02:26:13.962Z,85.81
2022-08-23T02:29:18.866Z,85.73
2022-08-23T02:32:21.285Z,85.28
2022-08-23T02:35:24.532Z,84.80
2022-08-23T02:38:27.120Z,85.37
2022-08-23T02:41:30.026Z,85.36
2022-08-23T02:44:34.639Z,85.32
2022-08-23T02:47:37.029Z,85.44
2022-08-23T02:50:40.294Z,84.20
2022-08-23T02:53:42.964Z,84.35
2022-08-23T02:56:45.522Z,84.66
2022-08-23T02:59:47.605Z,84.49
2022-08-23T03:02:49.994Z,84.65
2022-08-23T03:05:52.977Z,85.33
2022-08-23T03:08:56.674Z,86.09
2022-08-23T03:11:58.863Z,85.81
2022-08-23T03:15:01.302Z,84.58
2022-08-23T03:18:03.477Z,85.04
2022-08-23T03:21:07.406Z,85.90
2022-08-23T03:24:10.474Z,85.41
2022-08-23T03:27:13.785Z,85.82
2022-08-23T03:30:19.680Z,86.36
2022-08-23T03:33:24.429Z,85.49
2022-08-23T03:36:27.883Z,86.02
2022-08-23T03:39:31.320Z,84.96
2022-08-23T03:42:33.819Z,85.84
2022-08-23T03:45:37.903Z,88.07
2022-08-23T03:48:41.330Z,87.79
2022-08-23T03:51:43.857Z,88.85
2022-08-23T03:54:45.954Z,89.67
2022-08-23T03:57:49.060Z,90.43
2022-08-23T04:00:51.567Z,90.48
2022-08-23T04:03:54.068Z,90.92
2022-08-23T04:06:56.345Z,90.06
2022-08-23T04:09:58.887Z,91.11
2022-08-23T04:13:01.404Z,90.86
2022-08-23T04:16:04.974Z,89.67
2022-08-23T04:19:09.726Z,90.03
2022-08-23T04:22:14.030Z,90.80
2022-08-23T04:25:33.711Z,90.54
2022-08-23T04:28:37.861Z,89.75
2022-08-23T04:31:41.770Z,90.02
2022-08-23T04:34:45.676Z,91.41
2022-08-23T04:37:54.029Z,91.36
2022-08-23T04:41:15.822Z,91.60
2022-08-23T04:44:18.685Z,90.55
2022-08-23T04:47:21.412Z,90.43
2022-08-23T04:50:24.606Z,92.15
2022-08-23T04:53:29.181Z,92.63
2022-08-23T04:56:32.213Z,92.75
2022-08-23T04:59:35.415Z,91.77
2022-08-23T05:02:38.154Z,92.45
2022-08-23T05:05:41.850Z,90.93
2022-08-23T05:08:44.253Z,90.62
2022-08-23T05:11:46.606Z,90.36
2022-08-23T05:14:48.943Z,89.84
2022-08-23T05:17:52.087Z,89.20
2022-08-23T05:20:54.546Z,89.29
2022-08-23T05:24:00.342Z,90.74
2022-08-23T05:27:04.677Z,90.59
2022-08-23T05:30:08.170Z,88.78
2022-08-23T05:33:17.319Z,88.78
2022-08-23T05:36:21.449Z,90.63
2022-08-23T05:39:32.822Z,87.74
2022-08-23T05:42:39.260Z,89.80
2022-08-23T05:45:41.769Z,89.93
2022-08-23T05:48:50.921Z,90.41
2022-08-23T05:51:53.257Z,88.66
2022-08-23T05:54:55.798Z,89.42
2022-08-23T05:57:58.583Z,90.23
2022-08-23T06:01:01.938Z,90.27
2022-08-23T06:04:06.986Z,90.41
2022-08-23T06:07:11.032Z,91.08
2022-08-23T06:10:15.955Z,91.45
2022-08-23T06:13:19.178Z,87.64
2022-08-23T06:16:26.330Z,89.28
2022-08-23T06:19:28.586Z,89.86
2022-08-23T06:22:32.218Z,88.60
2022-08-23T06:25:38.917Z,87.17
2022-08-23T06:28:50.207Z,88.41
2022-08-23T06:31:53.970Z,89.14
2022-08-23T06:35:27.817Z,88.87
2022-08-23T06:38:21.629Z,87.39
2022-08-23T06:41:24.238Z,89.25
2022-08-23T06:44:27.483Z,87.48
2022-08-23T06:47:31.578Z,88.07
2022-08-23T06:50:34.091Z,88.14
2022-08-23T06:53:40.618Z,85.70
2022-08-23T06:56:44.468Z,86.81
2022-08-23T06:59:48.729Z,85.55
2022-08-23T07:02:51.133Z,85.54
2022-08-23T07:05:57.695Z,86.14
2022-08-23T07:09:00.890Z,86.02
2022-08-23T07:12:03.719Z,85.32
2022-08-23T07:15:06.613Z,86.52
2022-08-23T07:18:11.014Z,83.46
2022-08-23T07:21:16.321Z,83.44
2022-08-23T07:24:21.594Z,81.70
2022-08-23T07:27:24.321Z,81.77
2022-08-23T07:30:27.461Z,80.49
2022-08-23T07:33:29.662Z,80.32
2022-08-23T07:36:34.620Z,79.30
2022-08-23T07:39:37.158Z,79.02
2022-08-23T07:42:44.066Z,78.50
2022-08-23T07:45:48.787Z,77.39
2022-08-23T07:48:54.853Z,76.91
2022-08-23T07:51:58.797Z,77.45
2022-08-23T07:55:01.794Z,77.56
2022-08-23T07:58:04.282Z,77.83
2022-08-23T08:01:21.970Z,78.68
2022-08-23T08:04:24.426Z,77.17
2022-08-23T08:07:27.581Z,78.38
2022-08-23T08:10:36.743Z,77.83
2022-08-23T08:13:43.525Z,77.29
2022-08-23T08:16:48.842Z,75.42
2022-08-23T08:19:51.794Z,77.23
2022-08-23T08:23:00.778Z,76.34
2022-08-23T08:26:08.010Z,78.08
2022-08-23T08:29:11.976Z,75.48
2022-08-23T08:32:17.510Z,75.35
2022-08-23T08:35:20.205Z,74.81
2022-08-23T08:38:23.113Z,74.83
2022-08-23T08:42:04.308Z,73.84
2022-08-23T08:45:12.317Z,71.69
2022-08-23T08:48:22.147Z,72.52
2022-08-23T08:51:58.805Z,74.33
2022-08-23T08:55:24.625Z,71.49
2022-08-23T08:58:40.102Z,69.97
2022-08-23T09:01:42.604Z,72.14
2022-08-23T09:04:48.224Z,72.60
2022-08-23T09:08:25.014Z,72.12
2022-08-23T09:12:05.088Z,70.52
2022-08-23T09:15:28.665Z,70.06
2022-08-23T09:18:34.194Z,72.31
2022-08-23T09:21:49.447Z,70.85
2022-08-23T09:24:51.913Z,69.38
2022-08-23T09:27:56.075Z,68.29
2022-08-23T09:30:59.539Z,67.65
2022-08-23T09:34:02.328Z,66.57
2022-08-23T09:37:09.837Z,67.51
2022-08-23T09:40:38.843Z,67.54
2022-08-23T09:43:47.138Z,67.08
2022-08-23T09:46:49.876Z,66.07
2022-08-23T09:49:54.550Z,65.86
2022-08-23T09:53:14.405Z,66.31
2022-08-23T09:56:24.400Z,66.75
2022-08-23T09:59:27.411Z,64.57
2022-08-23T10:02:35.269Z,64.09
2022-08-23T10:05:40.371Z,64.02
2022-08-23T10:08:55.245Z,65.38
2022-08-23T10:12:01.041Z,64.86
2022-08-23T10:15:06.773Z,65.15
2022-08-23T10:18:16.956Z,63.18
2022-08-23T10:21:25.453Z,61.97
2022-08-23T10:24:53.021Z,65.71
2022-08-23T10:28:48.137Z,62.02
2022-08-23T10:32:16.218Z,61.97
2022-08-23T10:35:30.549Z,63.09
2022-08-23T10:38:50.733Z,60.32
2022-08-23T10:42:02.950Z,60.51
2022-08-23T10:45:08.508Z,60.20
2022-08-23T10:48:17.074Z,60.86
2022-08-23T10:51:31.535Z,58.44
2022-08-23T10:54:59.374Z,59.34
2022-08-23T10:58:06.163Z,60.66
2022-08-23T11:01:12.648Z,57.39
2022-08-23T11:04:36.589Z,58.39
2022-08-23T11:07:43.247Z,62.63
2022-08-23T11:10:52.807Z,60.22
2022-08-23T11:14:00.944Z,60.38
2022-08-23T11:17:28.559Z,60.15
2022-08-23T11:20:49.416Z,58.98
2022-08-23T11:23:59.574Z,59.36
2022-08-23T11:27:07.085Z,61.06
2022-08-23T11:30:32.645Z,60.50
2022-08-23T11:33:46.821Z,60.33
2022-08-23T11:37:20.374Z,60.09
2022-08-23T11:40:55.886Z,60.77
2022-08-23T11:44:03.280Z,60.64
2022-08-23T11:47:10.716Z,59.67
2022-08-23T11:50:29.206Z,59.15
2022-08-23T11:53:50.777Z,59.35
2022-08-23T11:57:11.634Z,58.62
2022-08-23T12:00:41.517Z,60.34
2022-08-23T12:04:21.662Z,61.39
2022-08-23T12:07:55.284Z,62.22
2022-08-23T12:11:01.798Z,59.91
2022-08-23T12:14:32.679Z,59.27
2022-08-23T12:17:40.256Z,60.66
2022-08-23T12:20:48.185Z,62.40
2022-08-23T12:23:55.609Z,63.16
2022-08-23T12:27:23.932Z,61.90
2022-08-23T12:31:07.845Z,62.22
2022-08-23T12:34:51.601Z,63.33
2022-08-23T12:38:10.225Z,64.61
2022-08-23T12:41:17.621Z,64.47
2022-08-23T12:44:23.994Z,63.39
2022-08-23T12:47:27.797Z,63.12
2022-08-23T12:50:37.062Z,62.66
2022-08-23T12:53:45.628Z,61.33
2022-08-23T12:56:52.235Z,62.21
2022-08-23T13:00:17.564Z,62.13
2022-08-23T13:03:32.832Z,61.33
2022-08-23T13:06:42.272Z,62.04
2022-08-23T13:09:53.456Z,62.95
2022-08-23T13:12:57.574Z,60.44
2022-08-23T13:16:03.597Z,61.25
2022-08-23T13:19:38.194Z,60.97
2022-08-23T13:22:56.058Z,65.01
2022-08-23T13:26:29.261Z,66.10
2022-08-23T13:29:32.451Z,66.99
2022-08-23T13:32:42.326Z,66.45
2022-08-23T13:35:47.184Z,66.32
2022-08-23T13:38:51.863Z,67.67
2022-08-23T13:41:55.583Z,66.96
2022-08-23T13:44:58.198Z,67.25
2022-08-23T13:48:06.540Z,67.03
2022-08-23T13:51:25.850Z,66.56
2022-08-23T13:54:30.033Z,64.70
